Time;durP1;ratioP1;P1;durP2;ratioP2;P2;SDS_P1;SDS_P2;PMS_P1;PMS_P2;Temp;Humidity;BMP_temperature;BMP_pressure;BME280_temperature;BME280_humidity;BME280_pressure;Samples;Min_cycle;Max_cycle;Signal;HPM_P1;HPM_P2
2021/05/11 00:00:45;;;;;;;;;;;;;;;21.70;50.95;100414.16;2100606;28;3865;-34
2021/05/11 00:01:45;;;;;;;;;;;;;;;21.70;51.01;100414.16;2101475;28;4007;-34
2021/05/11 00:02:46;;;;;;;;;;;;;;;21.69;50.90;100413.28;2101021;28;4027;-35
2021/05/11 00:03:48;;;;;;;;;;;;;;;21.70;50.89;100414.16;2101134;28;3809;-35
2021/05/11 00:04:48;;;;;;;;;;;;;;;21.70;50.98;100412.13;2099166;28;3996;-33
2021/05/11 00:05:49;;;;;;;;;;;;;;;21.70;50.82;100417.81;2100991;28;4058;-36
2021/05/11 00:06:50;;;;;;;;;;;;;;;21.71;50.97;100416.59;2101155;28;4016;-36
2021/05/11 00:07:52;;;;;;;;;;;;;;;21.70;51.05;100406.44;2100789;28;4056;-34
2021/05/11 00:08:52;;;;;;;;;;;;;;;21.72;51.06;100414.59;2101373;28;3853;-31
2021/05/11 00:09:53;;;;;;;;;;;;;;;21.72;51.07;100403.19;2100762;28;4056;-33
2021/05/11 00:10:54;;;;;;;;;;;;;;;21.72;50.77;100397.50;2101387;28;4005;-34
2021/05/11 00:11:55;;;;;;;;;;;;;;;21.72;50.94;100417.44;2100159;28;4047;-32
2021/05/11 00:12:55;;;;;;;;;;;;;;;21.72;51.03;100400.34;2101342;28;3994;-31
2021/05/11 00:13:56;;;;;;;;;;;;;;;21.72;51.01;100401.19;2102672;28;3992;-31
2021/05/11 00:14:57;;;;;;;;;;;;;;;21.73;51.03;100396.31;2103577;28;4069;-34
2021/05/11 00:15:59;;;;;;;;;;;;;;;21.73;50.97;100391.44;2102484;28;3813;-34
2021/05/11 00:17:00;;;;;;;;;;;;;;;21.73;51.06;100397.16;2102304;28;3827;-34
2021/05/11 00:18:01;;;;;;;;;;;;;;;21.74;51.02;100389.41;2102601;28;4175;-32
2021/05/11 00:19:06;;;;;;;;;;;;;;;21.73;51.09;100387.78;2102652;28;3868;-32
2021/05/11 00:20:06;;;;;;;;;;;;;;;21.74;51.07;100381.69;2102049;28;4989;-38
2021/05/11 00:21:07;;;;;;;;;;;;;;;21.74;51.03;100381.69;2102104;28;3926;-38
2021/05/11 00:22:08;;;;;;;;;;;;;;;21.74;50.97;100386.56;2103301;28;4059;-34
2021/05/11 00:23:09;;;;;;;;;;;;;;;21.74;50.91;100381.69;2102249;28;4026;-32
2021/05/11 00:24:09;;;;;;;;;;;;;;;21.74;51.07;100381.69;2102972;28;4045;-33
2021/05/11 00:25:10;;;;;;;;;;;;;;;21.74;50.96;100384.56;2102120;28;4040;-30
2021/05/11 00:26:11;;;;;;;;;;;;;;;21.75;50.74;100380.53;2103452;28;3853;-35
2021/05/11 00:27:12;;;;;;;;;;;;;;;21.76;50.98;100379.31;2103197;28;3874;-31
2021/05/11 00:28:12;;;;;;;;;;;;;;;21.76;50.98;100379.31;2102628;28;4144;-39
2021/05/11 00:29:13;;;;;;;;;;;;;;;21.76;51.00;100376.47;2102595;28;4024;-30
2021/05/11 00:30:14;;;;;;;;;;;;;;;21.76;50.95;100373.63;2100617;28;3867;-36
2021/05/11 00:31:14;;;;;;;;;;;;;;;21.77;50.87;100380.97;2103279;28;4020;-37
2021/05/11 00:32:15;;;;;;;;;;;;;;;21.77;50.97;100372.41;2103108;28;4071;-31
2021/05/11 00:33:16;;;;;;;;;;;;;;;21.78;51.02;100376.94;2102397;28;4097;-31
2021/05/11 00:34:17;;;;;;;;;;;;;;;21.78;51.04;100373.28;2100911;28;4053;-32
2021/05/11 00:35:18;;;;;;;;;;;;;;;21.77;51.06;100372.41;2102720;28;4306;-34
2021/05/11 00:36:18;;;;;;;;;;;;;;;21.78;51.03;100368.41;2103114;28;3891;-32
2021/05/11 00:37:19;;;;;;;;;;;;;;;21.78;50.91;100371.25;2103337;28;4059;-36
2021/05/11 00:38:20;;;;;;;;;;;;;;;21.78;50.90;100373.28;2101471;28;3853;-35
2021/05/11 00:39:20;;;;;;;;;;;;;;;21.78;50.93;100371.25;2102055;28;4065;-33
2021/05/11 00:40:21;;;;;;;;;;;;;;;21.78;50.98;100371.25;2102588;28;4062;-36
2021/05/11 00:41:22;;;;;;;;;;;;;;;21.79;51.01;100366.38;2101988;28;4013;-33
2021/05/11 00:42:23;;;;;;;;;;;;;;;21.78;51.02;100370.41;2103295;28;4055;-30
2021/05/11 00:43:23;;;;;;;;;;;;;;;21.79;50.94;100372.88;2100739;28;4108;-31
2021/05/11 00:44:24;;;;;;;;;;;;;;;21.79;50.95;100372.88;2101903;28;4032;-34
2021/05/11 00:45:25;;;;;;;;;;;;;;;21.80;51.04;100365.16;2103050;28;4025;-32
2021/05/11 00:46:28;;;;;;;;;;;;;;;21.75;50.94;100369.13;2103228;28;3881;-32
2021/05/11 00:47:31;;;;;;;;;;;;;;;21.68;50.99;100359.59;2103075;28;3766;-36
2021/05/11 00:48:32;;;;;;;;;;;;;;;21.61;50.90;100365.09;2102700;28;4211;-33
2021/05/11 00:49:33;;;;;;;;;;;;;;;21.54;51.01;100355.19;2101068;28;4254;-33
2021/05/11 00:50:34;;;;;;;;;;;;;;;21.51;50.90;100353.09;2102905;28;3893;-33
2021/05/11 00:51:34;;;;;;;;;;;;;;;21.50;50.86;100357.13;2102651;28;4043;-34
2021/05/11 00:52:35;;;;;;;;;;;;;;;21.46;50.82;100361.06;2102977;28;4291;-32
2021/05/11 00:53:38;;;;;;;;;;;;;;;21.43;50.92;100358.97;2101436;28;3999;-34
2021/05/11 00:54:39;;;;;;;;;;;;;;;21.41;50.85;100352.81;2102982;28;4016;-33
2021/05/11 00:55:40;;;;;;;;;;;;;;;21.39;50.78;100355.19;2102987;28;4009;-37
2021/05/11 00:56:41;;;;;;;;;;;;;;;21.38;50.96;100348.69;2103410;28;4083;-35
2021/05/11 00:57:42;;;;;;;;;;;;;;;21.43;50.61;100356.13;2102787;28;4045;-32
2021/05/11 00:58:42;;;;;;;;;;;;;;;21.47;50.56;100345.63;2100465;28;4010;-31
2021/05/11 00:59:43;;;;;;;;;;;;;;;21.50;50.47;100354.28;2103279;28;4101;-34
2021/05/11 01:00:44;;;;;;;;;;;;;;;21.53;50.39;100352.69;2102786;28;3997;-34
2021/05/11 01:01:45;;;;;;;;;;;;;;;21.57;50.41;100362.16;2102774;28;3999;-37
2021/05/11 01:02:45;;;;;;;;;;;;;;;21.59;50.29;100358.97;2100617;28;4048;-35
2021/05/11 01:03:46;;;;;;;;;;;;;;;21.61;50.26;100356.56;2102979;28;3994;-32
2021/05/11 01:04:47;;;;;;;;;;;;;;;21.62;50.41;100363.91;2101556;28;4038;-33
2021/05/11 01:05:48;;;;;;;;;;;;;;;21.62;50.46;100356.19;2102999;28;4023;-33
2021/05/11 01:06:48;;;;;;;;;;;;;;;21.63;50.29;100359.88;2102562;28;3858;-31
2021/05/11 01:07:50;;;;;;;;;;;;;;;21.64;50.60;100355.81;2099033;28;4041;-34
2021/05/11 01:08:51;;;;;;;;;;;;;;;21.65;50.46;100358.31;2103108;28;4198;-36
2021/05/11 01:09:52;;;;;;;;;;;;;;;21.66;50.38;100356.28;2102138;28;3845;-31
2021/05/11 01:10:52;;;;;;;;;;;;;;;21.67;50.45;100352.22;2102944;28;4214;-33
2021/05/11 01:11:53;;;;;;;;;;;;;;;21.66;50.42;100348.56;2102787;28;4136;-35
2021/05/11 01:12:54;;;;;;;;;;;;;;;21.68;50.43;100353.91;2102471;28;4165;-36
2021/05/11 01:13:55;;;;;;;;;;;;;;;21.66;50.32;100344.88;2102792;28;3984;-30
2021/05/11 01:14:55;;;;;;;;;;;;;;;21.67;50.51;100349.38;2101627;28;3830;-31
2021/05/11 01:15:56;;;;;;;;;;;;;;;21.67;50.41;100346.53;2102878;28;3964;-34
2021/05/11 01:17:01;;;;;;;;;;;;;;;21.66;50.41;100342.88;2103108;28;3844;-31
2021/05/11 01:18:13;;;;;;;;;;;;;;;21.66;50.27;100345.72;2100830;28;4011;-33
2021/05/11 01:19:44;;;;;;;;;;;;;;;21.68;50.32;100342.50;2100889;28;4808;-34
2021/05/11 01:20:49;;;;;;;;;;;;;;;21.68;50.30;100357.56;2102981;28;4024;-31
2021/05/11 01:22:05;;;;;;;;;;;;;;;21.68;50.39;100343.31;2102987;28;4109;-30
2021/05/11 01:24:10;;;;;;;;;;;;;;;21.69;50.27;100342.13;2102725;28;4646;-30
2021/05/11 01:25:15;;;;;;;;;;;;;;;21.69;50.28;100344.97;2100721;28;4055;-33
2021/05/11 01:26:28;;;;;;;;;;;;;;;21.70;50.40;100340.94;2101823;28;3873;-32
2021/05/11 01:27:40;;;;;;;;;;;;;;;21.70;50.35;100338.09;2100300;28;3908;-33
2021/05/11 01:32:27;;;;;;;;;;;;;;;21.71;50.36;100319.00;2101892;28;3946;-35
2021/05/11 01:44:54;;;;;;;;;;;;;;;21.73;50.47;100305.22;2101942;28;4713;-28
2021/05/11 01:48:03;;;;;;;;;;;;;;;21.74;50.46;100304.81;2103120;28;4299;-31
2021/05/11 01:49:19;;;;;;;;;;;;;;;21.74;50.41;100307.66;2102159;28;4029;-32
2021/05/11 01:50:39;;;;;;;;;;;;;;;21.76;50.41;100310.16;2094241;28;5873;-30
2021/05/11 01:53:36;;;;;;;;;;;;;;;21.73;50.55;100306.03;2102315;28;3986;-33
2021/05/11 01:54:47;;;;;;;;;;;;;;;21.74;50.60;100307.66;2102384;28;4897;-31
2021/05/11 02:11:18;;;;;;;;;;;;;;;21.74;50.46;100301.97;2063214;28;4044;-32
2021/05/11 02:18:03;;;;;;;;;;;;;;;21.74;50.48;100293.44;2101598;28;4988;-31
2021/05/11 02:23:13;;;;;;;;;;;;;;;21.75;50.50;100300.81;2055413;28;4931;-32
2021/05/11 02:24:13;;;;;;;;;;;;;;;21.75;50.67;100303.66;2056053;28;4068;-31
2021/05/11 02:25:15;;;;;;;;;;;;;;;21.75;50.62;100294.25;2058810;28;4068;-30
2021/05/11 02:26:15;;;;;;;;;;;;;;;21.75;50.64;100285.72;2101936;28;4057;-31
2021/05/11 02:27:16;;;;;;;;;;;;;;;21.75;50.63;100292.25;2102125;28;4055;-30
2021/05/11 02:28:17;;;;;;;;;;;;;;;21.75;50.73;100295.09;2101273;28;4241;-30
2021/05/11 02:29:18;;;;;;;;;;;;;;;21.75;50.74;100295.09;2099505;28;4023;-30
2021/05/11 02:30:18;;;;;;;;;;;;;;;21.76;50.68;100296.75;2101631;28;3918;-29
2021/05/11 02:31:19;;;;;;;;;;;;;;;21.75;50.54;100309.34;2102157;28;4074;-29
2021/05/11 02:32:20;;;;;;;;;;;;;;;21.76;50.58;100301.63;2101537;28;3876;-36
2021/05/11 02:33:21;;;;;;;;;;;;;;;21.76;50.49;100301.63;2101352;28;4119;-31
2021/05/11 02:34:21;;;;;;;;;;;;;;;21.75;50.67;100288.56;2100503;28;3880;-32
2021/05/11 02:35:22;;;;;;;;;;;;;;;21.75;50.56;100295.09;2101624;28;4043;-33
2021/05/11 02:36:23;;;;;;;;;;;;;;;21.75;50.70;100295.09;2101347;28;4205;-37
2021/05/11 02:37:24;;;;;;;;;;;;;;;21.76;50.63;100293.06;2101645;28;3998;-35
2021/05/11 02:38:24;;;;;;;;;;;;;;;21.75;50.50;100295.09;2099314;28;4002;-36
2021/05/11 02:39:25;;;;;;;;;;;;;;;21.75;50.76;100292.25;2100940;28;3887;-30
2021/05/11 02:40:26;;;;;;;;;;;;;;;21.76;50.63;100296.75;2100863;28;3887;-29
2021/05/11 02:41:26;;;;;;;;;;;;;;;21.76;50.46;100299.59;2101393;28;4108;-31
2021/05/11 02:42:27;;;;;;;;;;;;;;;21.76;50.61;100293.06;2100466;28;4032;-37
2021/05/11 02:43:35;;;;;;;;;;;;;;;21.75;50.60;100292.25;2102006;28;4073;-29
2021/05/11 02:44:41;;;;;;;;;;;;;;;21.76;50.56;100299.59;2101611;28;4043;-31
2021/05/11 02:45:42;;;;;;;;;;;;;;;21.76;50.62;100291.06;2101374;28;3965;-33
2021/05/11 02:46:43;;;;;;;;;;;;;;;21.77;50.59;100291.88;2101661;28;4074;-34
2021/05/11 02:47:51;;;;;;;;;;;;;;;21.77;50.68;100291.88;2101740;28;4030;-33
2021/05/11 02:48:52;;;;;;;;;;;;;;;21.77;50.67;100294.72;2101914;28;3884;-31
2021/05/11 02:49:53;;;;;;;;;;;;;;;21.77;50.64;100287.00;2101027;28;3835;-38
2021/05/11 02:50:53;;;;;;;;;;;;;;;21.76;50.79;100282.50;2100911;28;4066;-33
2021/05/11 02:51:54;;;;;;;;;;;;;;;21.76;50.84;100288.22;2101268;28;3934;-32
2021/05/11 02:52:55;;;;;;;;;;;;;;;21.76;50.68;100288.22;2098411;28;3970;-39
2021/05/11 02:53:56;;;;;;;;;;;;;;;21.77;50.63;100291.88;2100760;28;4037;-29
2021/05/11 02:54:56;;;;;;;;;;;;;;;21.76;50.67;100282.50;2101335;28;3830;-33
2021/05/11 02:55:57;;;;;;;;;;;;;;;21.76;50.70;100285.34;2101682;28;3961;-32
2021/05/11 02:56:58;;;;;;;;;;;;;;;21.76;50.73;100284.53;2101467;28;3984;-31
2021/05/11 02:57:58;;;;;;;;;;;;;;;21.76;50.85;100279.66;2101993;28;4052;-31
2021/05/11 02:58:59;;;;;;;;;;;;;;;21.76;50.82;100288.22;2101243;28;4038;-31
2021/05/11 03:00:00;;;;;;;;;;;;;;;21.76;50.91;100282.50;2101882;28;3983;-33
2021/05/11 03:01:01;;;;;;;;;;;;;;;21.76;50.71;100295.94;2100567;28;4195;-32
2021/05/11 03:02:02;;;;;;;;;;;;;;;21.77;50.72;100286.19;2100534;28;3834;-32
2021/05/11 03:03:03;;;;;;;;;;;;;;;21.76;50.92;100291.06;2101003;28;4033;-33
2021/05/11 03:04:04;;;;;;;;;;;;;;;21.76;50.77;100285.34;2100950;28;3935;-36
2021/05/11 03:05:05;;;;;;;;;;;;;;;21.77;50.70;100281.31;2100637;28;4011;-39
2021/05/11 03:06:06;;;;;;;;;;;;;;;21.76;50.75;100285.34;2100771;28;3953;-32
2021/05/11 03:07:07;;;;;;;;;;;;;;;21.77;50.91;100287.00;2100406;28;3987;-33
2021/05/11 03:08:07;;;;;;;;;;;;;;;21.76;50.79;100276.81;2100810;28;3881;-34
2021/05/11 03:09:08;;;;;;;;;;;;;;;21.76;50.84;100276.81;2102073;28;4046;-33
2021/05/11 03:10:09;;;;;;;;;;;;;;;21.77;50.85;100267.06;2100645;28;4046;-33
2021/05/11 03:11:10;;;;;;;;;;;;;;;21.77;50.88;100269.91;2101191;28;4094;-32
2021/05/11 03:12:10;;;;;;;;;;;;;;;21.77;50.91;100275.59;2102062;28;4036;-29
2021/05/11 03:13:11;;;;;;;;;;;;;;;21.77;50.89;100272.75;2099879;28;4048;-34
2021/05/11 03:14:12;;;;;;;;;;;;;;;21.77;50.81;100272.75;2101870;28;4033;-34
2021/05/11 03:15:12;;;;;;;;;;;;;;;21.78;50.93;100280.13;2101425;28;3992;-36
2021/05/11 03:16:14;;;;;;;;;;;;;;;21.77;50.97;100278.44;2102105;28;4135;-38
2021/05/11 03:17:15;;;;;;;;;;;;;;;21.78;51.01;100276.47;2101713;28;4037;-33
2021/05/11 03:18:16;;;;;;;;;;;;;;;21.78;50.99;100276.47;2100438;28;4028;-34
2021/05/11 03:19:17;;;;;;;;;;;;;;;21.77;51.07;100278.44;2101797;28;6037;-34
2021/05/11 03:20:18;;;;;;;;;;;;;;;21.78;50.85;100282.16;2101913;28;4049;-31
2021/05/11 03:21:19;;;;;;;;;;;;;;;21.77;51.09;100284.16;2101648;28;4076;-30
2021/05/11 03:22:19;;;;;;;;;;;;;;;21.77;50.99;100274.78;2100527;28;4080;-32
2021/05/11 03:23:20;;;;;;;;;;;;;;;21.77;50.96;100278.44;2100955;28;4034;-35
2021/05/11 03:24:21;;;;;;;;;;;;;;;21.78;50.96;100276.47;2102349;28;4041;-33
2021/05/11 03:25:23;;;;;;;;;;;;;;;21.77;51.15;100281.31;2101982;28;3965;-31
2021/05/11 03:26:23;;;;;;;;;;;;;;;21.77;51.18;100280.47;2100562;28;4061;-35
2021/05/11 03:27:24;;;;;;;;;;;;;;;21.77;51.22;100284.16;2101681;28;3869;-33
2021/05/11 03:28:25;;;;;;;;;;;;;;;21.77;51.18;100289.84;2100509;28;4010;-37
2021/05/11 03:29:26;;;;;;;;;;;;;;;21.77;51.13;100292.69;2101920;28;3881;-34
2021/05/11 03:30:27;;;;;;;;;;;;;;;21.77;51.13;100287.00;2100065;28;4274;-33
2021/05/11 03:31:30;;;;;;;;;;;;;;;21.77;51.24;100283.34;2100956;28;4037;-36
2021/05/11 03:32:31;;;;;;;;;;;;;;;21.78;51.05;100287.84;2102039;28;4274;-36
2021/05/11 03:33:32;;;;;;;;;;;;;;;21.79;51.14;100286.63;2101121;28;3881;-32
2021/05/11 03:34:33;;;;;;;;;;;;;;;21.78;51.17;100291.50;2100507;28;4116;-36
2021/05/11 03:35:33;;;;;;;;;;;;;;;21.79;51.26;100283.78;2100120;28;3862;-32
2021/05/11 03:36:34;;;;;;;;;;;;;;;21.78;51.26;100285.00;2100513;28;4234;-31
2021/05/11 03:37:35;;;;;;;;;;;;;;;21.79;51.27;100284.59;2100672;28;4036;-31
2021/05/11 03:38:36;;;;;;;;;;;;;;;21.79;51.38;100284.59;2101669;28;4067;-31
2021/05/11 03:39:41;;;;;;;;;;;;;;;21.78;51.31;100277.28;2099760;28;4103;-37
2021/05/11 03:40:42;;;;;;;;;;;;;;;21.79;51.27;100278.91;2091510;28;3903;-35
2021/05/11 03:41:50;;;;;;;;;;;;;;;21.77;51.30;100275.59;2092616;28;4080;-36
2021/05/11 03:43:02;;;;;;;;;;;;;;;21.78;51.44;100270.75;2098460;28;3991;-33
2021/05/11 03:44:08;;;;;;;;;;;;;;;21.78;51.38;100262.22;2100674;28;4132;-32
2021/05/11 03:45:12;;;;;;;;;;;;;;;21.79;51.43;100263.84;2100282;28;4912;-31
2021/05/11 03:46:13;;;;;;;;;;;;;;;21.79;51.42;100269.56;2099726;28;4024;-37
2021/05/11 03:47:17;;;;;;;;;;;;;;;21.77;51.62;100267.06;2101291;28;4044;-39
2021/05/11 03:48:19;;;;;;;;;;;;;;;21.78;51.43;100263.03;2100242;28;3923;-41
2021/05/11 03:49:20;;;;;;;;;;;;;;;21.77;51.45;100261.38;2101654;28;3912;-34
2021/05/11 03:50:21;;;;;;;;;;;;;;;21.78;51.42;100251.66;2101581;28;4231;-32
2021/05/11 03:51:22;;;;;;;;;;;;;;;21.79;51.38;100261.84;2098590;28;4124;-30
2021/05/11 03:52:24;;;;;;;;;;;;;;;21.78;51.48;100254.50;2101500;28;4092;-29
2021/05/11 03:53:25;;;;;;;;;;;;;;;21.79;51.46;100247.59;2100847;28;4180;-36
2021/05/11 03:54:26;;;;;;;;;;;;;;;21.79;51.66;100246.78;2100842;28;3949;-32
2021/05/11 03:55:27;;;;;;;;;;;;;;;21.78;51.43;100243.09;2100714;28;4106;-32
2021/05/11 03:56:29;;;;;;;;;;;;;;;21.78;51.58;100245.97;2098964;28;4188;-32
2021/05/11 03:57:31;;;;;;;;;;;;;;;21.79;51.37;100235.38;2101329;28;3866;-32
2021/05/11 03:58:32;;;;;;;;;;;;;;;21.80;51.57;100242.72;2099127;28;4028;-32
2021/05/11 03:59:35;;;;;;;;;;;;;;;21.79;51.38;100236.19;2099746;28;4024;-35
2021/05/11 04:00:36;;;;;;;;;;;;;;;21.79;51.46;100236.19;2101592;28;3983;-31
2021/05/11 04:01:38;;;;;;;;;;;;;;;21.80;51.50;100231.34;2100277;28;4043;-34
2021/05/11 04:02:39;;;;;;;;;;;;;;;21.78;51.54;100228.88;2090846;28;4020;-33
2021/05/11 04:03:40;;;;;;;;;;;;;;;21.78;51.67;100231.72;2092325;28;3977;-35
2021/05/11 04:04:42;;;;;;;;;;;;;;;21.79;51.52;100233.34;2095121;28;4048;-33
2021/05/11 04:05:43;;;;;;;;;;;;;;;21.79;51.60;100229.69;2102143;28;3854;-31
2021/05/11 04:06:45;;;;;;;;;;;;;;;21.79;51.60;100236.19;2099085;28;4006;-32
2021/05/11 04:07:50;;;;;;;;;;;;;;;21.80;51.61;100234.19;2100652;28;4053;-37
2021/05/11 04:08:59;;;;;;;;;;;;;;;21.79;51.64;100233.34;2101344;28;3965;-31
2021/05/11 04:10:03;;;;;;;;;;;;;;;21.79;51.45;100229.69;2100300;28;4154;-36
2021/05/11 04:16:21;;;;;;;;;;;;;;;21.79;51.53;100224.00;2099960;28;4686;-31
2021/05/11 04:17:23;;;;;;;;;;;;;;;21.79;51.51;100218.31;2101837;28;4275;-33
2021/05/11 04:18:24;;;;;;;;;;;;;;;21.79;51.61;100221.97;2100480;28;4059;-34
2021/05/11 04:19:25;;;;;;;;;;;;;;;21.79;51.38;100224.00;2100742;28;4116;-31
2021/05/11 04:20:26;;;;;;;;;;;;;;;21.79;51.65;100212.59;2101773;28;4052;-35
2021/05/11 04:21:28;;;;;;;;;;;;;;;21.78;51.45;100217.47;2101298;28;3919;-35
2021/05/11 04:22:29;;;;;;;;;;;;;;;21.79;51.57;100216.28;2101094;28;4046;-29
2021/05/11 04:23:30;;;;;;;;;;;;;;;21.79;51.45;100209.75;2101409;28;4024;-32
2021/05/11 04:24:32;;;;;;;;;;;;;;;21.79;51.44;100213.44;2101600;28;3913;-31
2021/05/11 04:25:33;;;;;;;;;;;;;;;21.78;51.46;100206.09;2100912;28;4033;-32
2021/05/11 04:26:34;;;;;;;;;;;;;;;21.79;51.52;100207.72;2101631;28;4323;-35
2021/05/11 04:27:35;;;;;;;;;;;;;;;21.80;51.51;100197.97;2101083;28;4030;-35
2021/05/11 04:28:37;;;;;;;;;;;;;;;21.79;51.68;100204.88;2101099;28;4072;-30
2021/05/11 04:29:38;;;;;;;;;;;;;;;21.81;51.41;100201.69;2101957;28;4142;-33
2021/05/11 04:30:39;;;;;;;;;;;;;;;21.78;51.44;100189.00;2100782;28;4055;-37
2021/05/11 04:31:40;;;;;;;;;;;;;;;21.79;51.54;100204.88;2100349;28;4077;-32
2021/05/11 04:32:42;;;;;;;;;;;;;;;21.80;51.68;100200.00;2101618;28;4033;-36
2021/05/11 04:33:43;;;;;;;;;;;;;;;21.79;51.79;100204.06;2100782;28;4194;-31
2021/05/11 04:34:44;;;;;;;;;;;;;;;21.80;51.77;100208.53;2100941;28;3924;-34
2021/05/11 04:35:45;;;;;;;;;;;;;;;21.80;51.80;100209.38;2101272;28;4011;-30
2021/05/11 04:36:47;;;;;;;;;;;;;;;21.80;51.71;100200.81;2100512;28;3857;-31
2021/05/11 04:37:49;;;;;;;;;;;;;;;21.80;51.72;100205.69;2099787;28;3858;-33
2021/05/11 04:38:50;;;;;;;;;;;;;;;21.79;51.84;100204.06;2099974;28;4045;-29
2021/05/11 04:39:51;;;;;;;;;;;;;;;21.80;51.79;100203.69;2101031;28;4002;-29
2021/05/11 04:40:52;;;;;;;;;;;;;;;21.80;51.85;100203.69;2100877;28;4005;-35
2021/05/11 04:41:54;;;;;;;;;;;;;;;21.80;51.97;100200.00;2100616;28;4085;-34
2021/05/11 04:42:55;;;;;;;;;;;;;;;21.79;51.81;100202.03;2100769;28;4172;-32
2021/05/11 04:43:58;;;;;;;;;;;;;;;21.80;51.80;100203.69;2100927;28;4140;-39
2021/05/11 04:45:00;;;;;;;;;;;;;;;21.79;51.77;100196.34;2100943;28;4058;-32
2021/05/11 04:46:12;;;;;;;;;;;;;;;21.79;51.78;100202.03;2101663;28;3961;-36
2021/05/11 04:47:17;;;;;;;;;;;;;;;21.80;51.79;100208.53;2100693;28;4155;-35
2021/05/11 04:48:18;;;;;;;;;;;;;;;21.80;51.82;100203.69;2100421;28;4050;-32
2021/05/11 04:49:20;;;;;;;;;;;;;;;21.80;51.73;100206.53;2100633;28;4036;-36
2021/05/11 04:50:21;;;;;;;;;;;;;;;21.78;51.87;100200.41;2101413;28;3870;-35
2021/05/11 04:51:22;;;;;;;;;;;;;;;21.79;51.93;100202.03;2100830;28;4063;-35
2021/05/11 04:52:24;;;;;;;;;;;;;;;21.80;51.84;100189.44;2100098;28;4223;-33
2021/05/11 04:53:25;;;;;;;;;;;;;;;21.81;51.64;100201.69;2101259;28;3898;-35
2021/05/11 04:54:26;;;;;;;;;;;;;;;21.80;51.75;100191.47;2099744;28;4054;-38
2021/05/11 04:55:28;;;;;;;;;;;;;;;21.79;51.88;100196.34;2101199;28;4057;-32
2021/05/11 04:56:29;;;;;;;;;;;;;;;21.80;51.87;100197.97;2101028;28;4023;-35
2021/05/11 04:57:30;;;;;;;;;;;;;;;21.81;51.86;100198.81;2100027;28;3906;-36
2021/05/11 04:58:34;;;;;;;;;;;;;;;21.80;51.93;100192.28;2100250;28;3885;-33
2021/05/11 04:59:36;;;;;;;;;;;;;;;21.80;51.71;100186.59;2100499;28;4042;-33
2021/05/11 05:00:37;;;;;;;;;;;;;;;21.80;51.85;100189.44;2101639;28;4127;-33
2021/05/11 05:01:39;;;;;;;;;;;;;;;21.79;51.86;100187.78;2100710;28;3874;-33
2021/05/11 05:02:42;;;;;;;;;;;;;;;21.80;51.71;100185.78;2102343;28;5002;-31
2021/05/11 05:03:47;;;;;;;;;;;;;;;21.80;51.88;100182.94;2102798;28;4074;-31
2021/05/11 05:04:48;;;;;;;;;;;;;;;21.79;51.72;100184.94;2102965;28;4322;-34
2021/05/11 05:05:50;;;;;;;;;;;;;;;21.81;51.91;100184.59;2102892;28;4030;-34
2021/05/11 05:06:51;;;;;;;;;;;;;;;21.80;51.70;100185.78;2102168;28;4056;-36
2021/05/11 05:07:53;;;;;;;;;;;;;;;21.80;51.97;100182.94;2101783;28;3814;-31
2021/05/11 05:08:54;;;;;;;;;;;;;;;21.80;51.83;100174.38;2101614;28;4058;-40
2021/05/11 05:09:55;;;;;;;;;;;;;;;21.80;51.81;100178.03;2101506;28;4102;-34
2021/05/11 05:10:56;;;;;;;;;;;;;;;21.80;51.73;100174.38;2101689;28;3871;-39
2021/05/11 05:11:58;;;;;;;;;;;;;;;21.80;51.78;100171.53;2103094;28;3968;-41
2021/05/11 05:12:59;;;;;;;;;;;;;;;21.79;51.96;100176.41;2102612;28;3966;-31
2021/05/11 05:14:00;;;;;;;;;;;;;;;21.80;51.78;100169.50;2100294;28;3984;-32
2021/05/11 05:15:01;;;;;;;;;;;;;;;21.80;51.82;100166.66;2102041;28;4150;-36
2021/05/11 05:16:02;;;;;;;;;;;;;;;21.79;51.90;100165.03;2102676;28;3958;-33
2021/05/11 05:17:04;;;;;;;;;;;;;;;21.80;51.90;100163.81;2100537;28;3975;-35
2021/05/11 05:18:05;;;;;;;;;;;;;;;21.80;51.75;100166.66;2102318;28;4110;-32
2021/05/11 05:19:06;;;;;;;;;;;;;;;21.80;51.83;100160.16;2099543;28;4888;-29
2021/05/11 05:20:08;;;;;;;;;;;;;;;21.80;51.89;100158.13;2102570;28;3754;-31
2021/05/11 05:21:09;;;;;;;;;;;;;;;21.80;51.86;100160.97;2102200;28;3889;-33
2021/05/11 05:22:11;;;;;;;;;;;;;;;21.79;51.77;100156.47;2101754;28;4057;-30
2021/05/11 05:23:14;;;;;;;;;;;;;;;21.79;51.84;100156.47;2101288;28;4045;-33
2021/05/11 05:25:00;;;;;;;;;;;;;;;21.80;51.70;100155.28;2100468;28;3931;-35
2021/05/11 05:25:39;;;;;;;;;;;;;;;21.79;51.75;100153.63;2091582;28;4057;-36
2021/05/11 05:26:43;;;;;;;;;;;;;;;21.80;51.72;100151.59;2102885;28;3955;-35
2021/05/11 05:27:55;;;;;;;;;;;;;;;21.80;51.69;100145.91;2102739;28;4014;-31
2021/05/11 05:28:58;;;;;;;;;;;;;;;21.79;51.83;100145.09;2101774;28;4082;-34
2021/05/11 05:30:02;;;;;;;;;;;;;;;21.79;51.77;100156.47;2102540;28;4006;-34
2021/05/11 05:31:04;;;;;;;;;;;;;;;21.79;51.87;100149.97;2102896;28;4024;-33
2021/05/11 05:32:05;;;;;;;;;;;;;;;21.79;51.63;100147.94;2100498;28;3972;-31
2021/05/11 05:33:06;;;;;;;;;;;;;;;21.78;51.77;100143.44;2102141;28;4217;-37
2021/05/11 05:34:07;;;;;;;;;;;;;;;21.79;51.83;100153.63;2101149;28;4912;-36
2021/05/11 05:35:09;;;;;;;;;;;;;;;21.79;51.85;100152.81;2102842;28;4024;-31
2021/05/11 05:36:15;;;;;;;;;;;;;;;21.78;51.72;100149.16;2102633;28;4055;-32
2021/05/11 05:37:16;;;;;;;;;;;;;;;21.79;51.80;100155.66;2100353;28;3894;-35
2021/05/11 05:38:17;;;;;;;;;;;;;;;21.78;51.71;100149.16;2102624;28;4097;-33
2021/05/11 05:39:21;;;;;;;;;;;;;;;21.79;51.67;100147.13;2100882;28;4071;-32
2021/05/11 05:40:22;;;;;;;;;;;;;;;21.79;51.66;100149.97;2102568;28;4047;-32
2021/05/11 05:41:24;;;;;;;;;;;;;;;21.79;51.75;100155.66;2101155;28;4056;-28
2021/05/11 05:42:27;;;;;;;;;;;;;;;21.77;51.77;100153.16;2102476;28;4056;-32
2021/05/11 05:43:29;;;;;;;;;;;;;;;21.78;51.78;100159.72;2100445;28;4008;-33
2021/05/11 05:44:30;;;;;;;;;;;;;;;21.79;51.65;100158.50;2102568;28;4121;-30
2021/05/11 05:45:31;;;;;;;;;;;;;;;21.77;51.87;100158.88;2102496;28;3919;-34
2021/05/11 05:46:33;;;;;;;;;;;;;;;21.77;51.65;100158.88;2101628;28;3897;-30
2021/05/11 05:47:34;;;;;;;;;;;;;;;21.79;51.69;100158.50;2102139;28;4053;-34
2021/05/11 05:48:36;;;;;;;;;;;;;;;21.79;51.61;100158.50;2101175;28;4011;-33
2021/05/11 05:49:48;;;;;;;;;;;;;;;21.78;51.85;100152.00;2102108;28;4052;-29
2021/05/11 05:50:54;;;;;;;;;;;;;;;21.79;51.87;100147.94;2101367;28;4036;-30
2021/05/11 05:52:03;;;;;;;;;;;;;;;21.77;51.82;100144.63;2102491;28;3880;-35
2021/05/11 05:53:11;;;;;;;;;;;;;;;21.78;51.83;100136.94;2102695;28;3848;-34
2021/05/11 05:54:12;;;;;;;;;;;;;;;21.78;51.82;100136.94;2102734;28;4803;-31
2021/05/11 05:55:13;;;;;;;;;;;;;;;21.78;51.67;100131.25;2102018;28;4035;-34
2021/05/11 05:56:16;;;;;;;;;;;;;;;21.78;51.83;100129.22;2100397;28;4095;-32
2021/05/11 05:57:17;;;;;;;;;;;;;;;21.77;51.89;100127.53;2100124;28;3910;-33
2021/05/11 05:58:18;;;;;;;;;;;;;;;21.78;51.70;100132.06;2099274;28;4062;-40
2021/05/11 05:59:19;;;;;;;;;;;;;;;21.78;51.71;100126.38;2099842;28;4058;-38
2021/05/11 06:00:21;;;;;;;;;;;;;;;21.78;51.71;100123.53;2100712;28;3889;-35
2021/05/11 06:01:28;;;;;;;;;;;;;;;21.78;51.78;100117.81;2102093;28;4030;-31
2021/05/11 06:02:42;;;;;;;;;;;;;;;21.78;51.77;100120.69;2102782;28;3873;-27
2021/05/11 06:04:45;;;;;;;;;;;;;;;21.79;51.89;100124.34;2102778;28;4020;-33
2021/05/11 06:05:46;;;;;;;;;;;;;;;21.78;51.89;100123.53;2100517;28;3945;-30
2021/05/11 06:06:48;;;;;;;;;;;;;;;21.78;51.84;100122.69;2100484;28;4104;-33
2021/05/11 06:07:51;;;;;;;;;;;;;;;21.78;51.73;100126.38;2102374;28;3963;-32
2021/05/11 06:08:53;;;;;;;;;;;;;;;21.79;52.04;100132.88;2102509;28;4045;-35
2021/05/11 06:09:55;;;;;;;;;;;;;;;21.79;51.93;100136.53;2100915;28;4011;-31
2021/05/11 06:11:01;;;;;;;;;;;;;;;21.78;51.94;100136.94;2101669;28;3961;-34
2021/05/11 06:13:18;;;;;;;;;;;;;;;21.78;52.06;100137.75;2101278;28;4743;-32
2021/05/11 06:14:40;;;;;;;;;;;;;;;21.80;51.98;100137.38;2102330;28;4097;-35
2021/05/11 06:17:22;;;;;;;;;;;;;;;21.80;52.14;100143.06;2099233;28;4556;-32
2021/05/11 06:18:26;;;;;;;;;;;;;;;21.80;52.02;100155.28;2094513;28;4431;-34
2021/05/11 06:19:27;;;;;;;;;;;;;;;21.80;52.27;100152.41;2102278;28;3899;-28